Time;durP1;ratioP1;P1;durP2;ratioP2;P2;SDS_P1;SDS_P2;PMS_P1;PMS_P2;Temp;Humidity;BMP_temperature;BMP_pressure;BME280_temperature;BME280_humidity;BME280_pressure;Samples;Min_cycle;Max_cycle;Signal;HPM_P1;HPM_P2
2022/01/03 00:00:12;;;;;;;25.90;10.18;;;;;;;6.53;100.00;97353.97;5006575;28;20050;-69
2022/01/03 00:02:40;;;;;;;20.63;10.40;;;;;;;6.12;100.00;97276.97;5004938;28;20060;-70
2022/01/03 00:05:07;;;;;;;24.20;9.48;;;;;;;6.70;100.00;97358.56;5006778;28;20064;-70
2022/01/03 00:07:38;;;;;;;26.13;11.20;;;;;;;6.75;100.00;97350.88;5006794;28;20065;-69
2022/01/03 00:10:05;;;;;;;21.52;9.73;;;;;;;6.72;100.00;97340.53;5004968;28;20057;-69
2022/01/03 00:12:33;;;;;;;22.45;10.18;;;;;;;6.43;100.00;97321.41;5021032;28;20448;-69
2022/01/03 00:15:00;;;;;;;24.73;11.15;;;;;;;6.80;100.00;97345.16;5005946;28;20050;-69
2022/01/03 00:17:27;;;;;;;26.50;10.65;;;;;;;6.97;100.00;97350.50;5004635;28;20104;-69
2022/01/03 00:19:54;;;;;;;25.35;10.43;;;;;;;7.02;100.00;97350.28;5006247;28;20061;-69
2022/01/03 00:22:22;;;;;;;29.67;11.07;;;;;;;6.88;100.00;97382.81;5004756;28;20054;-68
2022/01/03 00:25:03;;;;;;;28.38;11.05;;;;;;;6.81;100.00;97299.97;5020423;28;20165;-69
2022/01/03 00:27:43;;;;;;;29.65;10.80;;;;;;;7.00;100.00;97305.75;5024521;28;20462;-68
2022/01/03 00:30:11;;;;;;;25.88;11.73;;;;;;;6.70;100.00;97282.25;5025919;28;20057;-70
2022/01/03 00:32:42;;;;;;;27.25;11.25;;;;;;;6.77;100.00;97304.53;5025670;28;20595;-68
2022/01/03 00:35:09;;;;;;;26.15;11.90;;;;;;;6.94;100.00;97331.91;5024383;28;20049;-69
2022/01/03 00:37:37;;;;;;;28.27;10.85;;;;;;;7.00;100.00;97330.53;5025425;28;20053;-69
2022/01/03 00:40:04;;;;;;;29.15;10.88;;;;;;;6.88;100.00;97297.47;5026067;28;20593;-69
2022/01/03 00:42:31;;;;;;;25.67;10.30;;;;;;;7.02;100.00;97317.22;5025561;28;20515;-68
2022/01/03 00:45:00;;;;;;;28.23;10.63;;;;;;;6.89;100.00;97332.09;5024300;28;20053;-69
2022/01/03 00:47:32;;;;;;;31.10;10.50;;;;;;;6.50;100.00;97266.59;5023817;28;20055;-70
2022/01/03 00:50:06;;;;;;;31.52;9.80;;;;;;;7.03;100.00;97329.06;5026008;28;20049;-69
2022/01/03 00:52:32;;;;;;;32.38;11.07;;;;;;;6.54;100.00;97240.03;5025649;28;20144;-69
2022/01/03 00:55:00;;;;;;;34.33;11.85;;;;;;;7.09;100.00;97323.00;5024633;28;20054;-68
2022/01/03 00:57:41;;;;;;;35.42;10.20;;;;;;;6.86;100.00;97308.00;5023817;28;20049;-70
2022/01/03 01:00:10;;;;;;;39.47;13.30;;;;;;;6.60;100.00;97263.44;5025548;28;20052;-70
2022/01/03 01:02:40;;;;;;;38.72;12.07;;;;;;;6.83;100.00;97283.91;5025282;28;20064;-68
2022/01/03 01:05:08;;;;;;;37.83;11.82;;;;;;;6.23;100.00;97234.16;5024831;28;20046;-68
2022/01/03 01:07:34;;;;;;;42.65;14.02;;;;;;;6.73;100.00;97289.88;5024967;28;20068;-70
2022/01/03 01:10:04;;;;;;;41.33;13.68;;;;;;;6.42;100.00;97236.44;5023257;28;20556;-68
2022/01/03 01:12:31;;;;;;;47.63;13.30;;;;;;;6.27;100.00;97204.88;5024616;28;20053;-69
2022/01/03 01:14:58;;;;;;;32.83;11.43;;;;;;;6.71;100.00;97261.88;5024396;28;20057;-69
2022/01/03 01:17:28;;;;;;;37.35;10.57;;;;;;;6.80;100.00;97248.00;5024799;28;20181;-69
2022/01/03 01:19:58;;;;;;;37.80;12.13;;;;;;;5.82;100.00;97091.28;5023272;28;20563;-67
2022/01/03 01:22:25;;;;;;;32.97;12.13;;;;;;;6.65;100.00;97240.41;5024690;28;20159;-69
2022/01/03 01:25:23;;;;;;;39.83;11.00;;;;;;;6.61;100.00;97251.28;5010171;28;20072;-69
2022/01/03 01:27:49;;;;;;;32.13;10.43;;;;;;;6.77;100.00;97252.25;5005414;28;20054;-69
2022/01/03 01:30:18;;;;;;;30.20;9.60;;;;;;;6.85;100.00;97240.34;5005041;28;20060;-69
2022/01/03 01:33:09;;;;;;;32.83;9.95;;;;;;;6.90;100.00;97247.56;5005033;28;20058;-69
2022/01/03 01:35:53;;;;;;;32.08;9.45;;;;;;;7.08;100.00;97235.22;5019706;28;21014;-69
2022/01/03 01:38:24;;;;;;;31.95;9.80;;;;;;;6.89;100.00;97169.66;5019798;28;20050;-70
2022/01/03 01:40:54;;;;;;;30.60;10.10;;;;;;;6.72;100.00;97133.31;5004731;28;20053;-69
2022/01/03 01:43:35;;;;;;;33.92;10.02;;;;;;;7.36;100.00;97227.88;5004970;28;20184;-71
2022/01/03 01:46:09;;;;;;;34.78;11.68;;;;;;;6.80;100.00;97127.69;5004280;28;20440;-69
2022/01/03 01:48:38;;;;;;;27.05;9.90;;;;;;;7.40;100.00;97207.53;5004527;28;20058;-70
2022/01/03 01:51:07;;;;;;;28.45;9.80;;;;;;;7.50;100.00;97204.31;5005223;28;20824;-69
2022/01/03 01:53:53;;;;;;;36.17;10.70;;;;;;;7.27;100.00;97170.13;5004489;28;20061;-68
2022/01/03 01:56:53;;;;;;;29.85;11.88;;;;;;;7.52;100.00;97171.69;5002920;28;20168;-68
2022/01/03 01:59:25;;;;;;;31.40;11.20;;;;;;;7.23;100.00;97171.97;5004407;28;20058;-71
2022/01/03 02:02:02;;;;;;;43.85;14.10;;;;;;;7.25;100.00;97139.38;5004716;28;20046;-69
2022/01/03 02:04:38;;;;;;;42.33;13.02;;;;;;;7.55;100.00;97176.53;5004550;28;20137;-71
2022/01/03 02:07:24;;;;;;;45.08;12.50;;;;;;;7.52;100.00;97170.91;5003715;28;20440;-69
2022/01/03 02:10:02;;;;;;;38.42;12.98;;;;;;;7.45;100.00;97138.41;5004618;28;20061;-68
2022/01/03 02:12:34;;;;;;;44.08;13.40;;;;;;;7.54;100.00;97152.03;5002462;28;20072;-68
2022/01/03 02:15:01;;;;;;;34.03;12.55;;;;;;;7.60;100.00;97137.66;5003631;28;20062;-70
2022/01/03 02:17:27;;;;;;;37.90;13.90;;;;;;;7.51;100.00;97159.06;5002827;28;20437;-68
2022/01/03 02:20:08;;;;;;;48.58;14.95;;;;;;;7.53;100.00;97144.94;5002841;28;20054;-69
2022/01/03 02:22:37;;;;;;;47.33;15.02;;;;;;;7.19;100.00;97080.13;5003934;28;20061;-70
2022/01/03 02:25:06;;;;;;;45.33;13.15;;;;;;;7.51;100.00;97120.47;5020277;28;20057;-71
2022/01/03 02:27:33;;;;;;;39.05;11.43;;;;;;;6.35;100.00;97036.19;5022470;28;20046;-70
2022/01/03 02:30:01;;;;;;;32.30;11.50;;;;;;;6.66;100.00;97044.66;5023681;28;20049;-68
2022/01/03 02:32:29;;;;;;;49.38;13.43;;;;;;;7.12;100.00;97104.72;5023948;28;20482;-68
2022/01/03 02:34:56;;;;;;;56.50;14.20;;;;;;;7.44;100.00;97153.34;5023777;28;20057;-68
2022/01/03 02:37:23;;;;;;;44.22;12.50;;;;;;;7.59;100.00;97174.66;5024003;28;20053;-70
2022/01/03 02:39:51;;;;;;;47.35;13.02;;;;;;;7.48;100.00;97120.38;5022558;28;20053;-69
2022/01/03 02:42:23;;;;;;;34.45;11.48;;;;;;;7.62;100.00;97135.38;5023919;28;20057;-70
2022/01/03 02:45:09;;;;;;;43.53;13.07;;;;;;;7.68;100.00;97119.41;5024201;28;20133;-70
2022/01/03 02:47:38;;;;;;;52.10;13.98;;;;;;;7.68;100.00;97117.44;5023368;28;20052;-67
2022/01/03 02:50:07;;;;;;;47.85;15.38;;;;;;;7.73;100.00;97117.19;5023440;28;20056;-67
2022/01/03 02:52:33;;;;;;;57.63;17.23;;;;;;;7.88;100.00;97117.59;5023687;28;20061;-67
2022/01/03 02:55:01;;;;;;;52.40;15.00;;;;;;;7.48;100.00;97076.28;5036695;28;20053;-67
2022/01/03 02:57:35;;;;;;;53.30;15.35;;;;;;;7.81;100.00;97125.69;5043621;28;20052;-70
2022/01/03 03:00:04;;;;;;;46.22;14.38;;;;;;;7.67;100.00;97113.09;5042178;28;20067;-69
2022/01/03 03:02:31;;;;;;;50.80;14.85;;;;;;;7.32;100.00;97062.44;5043501;28;20053;-70
2022/01/03 03:05:00;;;;;;;41.45;14.15;;;;;;;7.78;100.00;97123.63;5043199;28;20140;-68
2022/01/03 03:07:30;;;;;;;57.03;14.80;;;;;;;7.65;100.00;97126.41;5043371;28;20063;-69
2022/01/03 03:09:58;;;;;;;55.35;16.10;;;;;;;7.42;100.00;97119.81;5042933;28;20044;-68
2022/01/03 03:12:25;;;;;;;56.28;15.38;;;;;;;7.63;100.00;97123.19;5041637;28;20055;-69
2022/01/03 03:14:52;;;;;;;56.13;15.02;;;;;;;7.62;100.00;97127.09;5041304;28;20068;-67
2022/01/03 03:17:19;;;;;;;54.53;15.65;;;;;;;7.59;100.00;97103.00;5043455;28;20175;-67
2022/01/03 03:19:55;;;;;;;54.53;15.13;;;;;;;7.79;100.00;97114.19;5047151;28;20075;-67
2022/01/03 03:22:24;;;;;;;53.65;15.38;;;;;;;7.27;100.00;97026.06;5047005;28;20059;-69
2022/01/03 03:24:58;;;;;;;54.80;15.68;;;;;;;7.89;100.00;97094.41;5033187;28;20060;-68
2022/01/03 03:27:25;;;;;;;48.42;16.52;;;;;;;7.69;100.00;97098.94;5026635;28;20547;-70
2022/01/03 03:30:15;;;;;;;53.15;17.90;;;;;;;7.60;100.00;97066.00;5027149;28;20057;-71
2022/01/03 03:32:44;;;;;;;51.38;15.48;;;;;;;7.85;100.00;97096.25;5026812;28;20475;-70
2022/01/03 03:35:10;;;;;;;43.55;12.93;;;;;;;7.89;100.00;97102.66;5027188;28;20068;-68
2022/01/03 03:37:37;;;;;;;34.00;11.15;;;;;;;7.43;100.00;97030.47;5026916;28;20049;-68
2022/01/03 03:40:05;;;;;;;33.05;11.30;;;;;;;7.89;100.00;97119.22;5025305;28;20136;-68
2022/01/03 03:42:32;;;;;;;32.22;11.43;;;;;;;7.80;100.00;97121.31;5025298;28;20053;-70
2022/01/03 03:44:59;;;;;;;28.15;10.48;;;;;;;7.72;100.00;97123.88;5026381;28;20049;-68
2022/01/03 03:47:26;;;;;;;35.85;10.95;;;;;;;7.16;100.00;97047.78;5026582;28;20045;-68
2022/01/03 03:49:53;;;;;;;24.80;10.05;;;;;;;7.20;100.00;97076.25;5024925;28;20057;-68
2022/01/03 03:52:20;;;;;;;25.50;10.10;;;;;;;7.29;100.00;97074.16;5026682;28;20060;-70
2022/01/03 03:54:47;;;;;;;35.50;11.88;;;;;;;7.39;100.00;97095.72;5026900;28;20073;-68
2022/01/03 03:57:13;;;;;;;45.40;12.98;;;;;;;7.40;100.00;97102.81;5026917;28;20057;-67
2022/01/03 03:59:40;;;;;;;31.80;12.55;;;;;;;6.75;100.00;96970.22;5041707;28;20057;-69
2022/01/03 04:02:07;;;;;;;33.55;11.13;;;;;;;7.28;100.00;97067.03;5024911;28;20049;-69
2022/01/03 04:04:35;;;;;;;40.13;14.15;;;;;;;7.29;100.00;97049.34;5025173;28;20848;-68
2022/01/03 04:07:02;;;;;;;38.70;12.50;;;;;;;7.52;100.00;97064.19;5025728;28;20436;-70
2022/01/03 04:09:29;;;;;;;28.90;10.30;;;;;;;7.46;100.00;97057.34;5025017;28;20059;-68
2022/01/03 04:11:57;;;;;;;24.25;9.07;;;;;;;7.32;100.00;97029.38;5026376;28;20057;-68
2022/01/03 04:14:23;;;;;;;37.83;11.32;;;;;;;7.43;100.00;97059.97;5025842;28;20530;-70
2022/01/03 04:16:50;;;;;;;31.17;9.88;;;;;;;7.39;100.00;97068.16;5026127;28;20523;-69
2022/01/03 04:19:17;;;;;;;25.55;10.25;;;;;;;7.30;100.00;97070.22;5024727;28;20053;-70
2022/01/03 04:21:44;;;;;;;30.27;10.52;;;;;;;6.93;100.00;97016.41;5026042;28;20045;-68
2022/01/03 04:24:11;;;;;;;23.98;9.98;;;;;;;6.86;100.00;97007.91;5031974;28;20404;-68
2022/01/03 04:26:39;;;;;;;31.52;9.48;;;;;;;6.47;100.00;96931.63;5045562;28;20048;-70
2022/01/03 04:29:07;;;;;;;39.10;11.13;;;;;;;7.10;100.00;97046.41;5045057;28;20079;-71
2022/01/03 04:31:37;;;;;;;35.30;11.07;;;;;;;7.01;100.00;97073.28;5045452;28;20065;-67
2022/01/03 04:34:04;;;;;;;35.20;10.77;;;;;;;6.25;100.00;96940.34;5045244;28;20059;-69
2022/01/03 04:36:30;;;;;;;32.03;10.55;;;;;;;6.95;100.00;97085.69;5044246;28;20063;-67
2022/01/03 04:38:57;;;;;;;28.80;10.38;;;;;;;7.07;100.00;97071.91;5045833;28;20057;-67
2022/01/03 04:41:24;;;;;;;39.95;10.75;;;;;;;6.56;100.00;96995.56;5045334;28;20549;-70
2022/01/03 04:43:51;;;;;;;32.08;10.20;;;;;;;6.80;100.00;97009.31;5045377;28;20526;-69
2022/01/03 04:46:18;;;;;;;36.80;11.45;;;;;;;6.82;100.00;97053.81;5045178;28;20075;-70
2022/01/03 04:48:45;;;;;;;43.70;12.25;;;;;;;7.17;100.00;97052.16;5044990;28;20053;-68
2022/01/03 04:51:12;;;;;;;38.67;11.38;;;;;;;5.91;100.00;96897.63;5045421;28;20472;-68
2022/01/03 04:53:40;;;;;;;33.47;12.57;;;;;;;7.21;100.00;97055.81;5043891;28;20053;-68
2022/01/03 04:56:12;;;;;;;37.00;11.43;;;;;;;7.35;100.00;97061.72;5044890;28;20520;-69
2022/01/03 04:58:40;;;;;;;38.90;12.40;;;;;;;7.33;100.00;97053.00;5045627;28;20435;-68
2022/01/03 05:01:08;;;;;;;36.10;11.00;;;;;;;7.18;100.00;97012.44;5044290;28;20056;-68
2022/01/03 05:03:35;;;;;;;36.78;11.95;;;;;;;7.30;100.00;97052.91;5045152;28;20862;-67
2022/01/03 05:06:02;;;;;;;46.67;13.60;;;;;;;7.28;100.00;97045.00;5043415;28;20049;-67
2022/01/03 05:08:31;;;;;;;43.75;14.95;;;;;;;7.35;100.00;97038.91;5044949;28;20072;-70
2022/01/03 05:11:00;;;;;;;42.53;14.32;;;;;;;6.95;100.00;96986.56;5044460;28;20372;-68
2022/01/03 05:13:31;;;;;;;32.60;12.88;;;;;;;7.27;100.00;97046.13;5043177;28;20069;-68
2022/01/03 05:15:59;;;;;;;36.83;13.15;;;;;;;6.75;100.00;96987.53;5043096;28;20136;-70
2022/01/03 05:18:26;;;;;;;42.45;14.60;;;;;;;7.07;100.00;97038.84;5045011;28;20140;-68
2022/01/03 05:20:53;;;;;;;43.92;13.90;;;;;;;7.09;100.00;97025.53;5044565;28;20045;-68
2022/01/03 05:23:21;;;;;;;37.53;10.93;;;;;;;6.70;100.00;96967.69;5043812;28;20055;-68
2022/01/03 05:25:48;;;;;;;37.65;11.60;;;;;;;7.05;100.00;97021.09;5025073;28;20053;-68
2022/01/03 05:28:14;;;;;;;38.05;13.55;;;;;;;7.05;100.00;97040.38;5022994;28;20517;-68
2022/01/03 05:30:42;;;;;;;33.15;12.52;;;;;;;7.00;100.00;97044.13;5024508;28;20049;-70
2022/01/03 05:33:09;;;;;;;39.33;14.05;;;;;;;4.58;100.00;96689.97;5024600;28;20141;-67
2022/01/03 05:35:36;;;;;;;33.22;10.70;;;;;;;6.60;100.00;97013.00;5023874;28;20053;-70
2022/01/03 05:38:03;;;;;;;33.35;12.02;;;;;;;6.75;100.00;97034.31;5024160;28;20061;-69
2022/01/03 05:40:29;;;;;;;42.03;14.23;;;;;;;6.60;100.00;97029.53;5024047;28;20443;-70
2022/01/03 05:42:56;;;;;;;34.65;13.30;;;;;;;6.36;100.00;97029.53;5024639;28;20049;-68
2022/01/03 05:45:25;;;;;;;29.40;10.70;;;;;;;6.30;100.00;97024.59;5024431;28;20412;-67
2022/01/03 05:47:52;;;;;;;32.55;11.60;;;;;;;6.26;100.00;97018.97;5024307;28;20049;-70
2022/01/03 05:50:19;;;;;;;29.45;11.95;;;;;;;6.34;100.00;97020.78;5021872;28;20061;-69
2022/01/03 05:52:46;;;;;;;37.53;11.43;;;;;;;5.89;100.00;96976.09;5007477;28;20058;-68
2022/01/03 05:55:13;;;;;;;33.50;11.38;;;;;;;5.23;100.00;96941.56;5003983;28;20053;-68
2022/01/03 05:57:40;;;;;;;33.90;11.50;;;;;;;6.06;100.00;97014.38;5004525;28;20054;-68
2022/01/03 06:00:09;;;;;;;37.35;10.75;;;;;;;6.20;100.00;97020.34;5002860;28;20045;-68
2022/01/03 06:02:41;;;;;;;36.47;9.38;;;;;;;5.19;100.00;96940.63;5002720;28;20421;-70
2022/01/03 06:05:16;;;;;;;33.63;10.93;;;;;;;5.83;100.00;97024.19;5005055;28;20061;-68
2022/01/03 06:07:43;;;;;;;47.83;10.95;;;;;;;6.03;100.00;97009.56;5004154;28;20056;-70
2022/01/03 06:10:15;;;;;;;46.10;10.38;;;;;;;6.21;100.00;97008.22;5004059;28;20049;-70
2022/01/03 06:12:45;;;;;;;51.72;19.20;;;;;;;6.43;100.00;97024.25;5019592;28;20492;-68
2022/01/03 06:15:14;;;;;;;47.97;15.73;;;;;;;6.39;100.00;97001.31;5018782;28;20946;-70
2022/01/03 06:17:42;;;;;;;41.10;16.73;;;;;;;6.56;100.00;97023.09;5019211;28;20443;-67
2022/01/03 06:20:10;;;;;;;52.45;18.30;;;;;;;6.01;100.00;96924.66;5004071;28;20425;-69
2022/01/03 06:22:39;;;;;;;43.17;15.13;;;;;;;6.18;100.00;96951.94;5018799;28;20060;-70
2022/01/03 06:25:07;;;;;;;44.28;12.75;;;;;;;6.11;100.00;96928.91;5031193;28;20420;-68
2022/01/03 06:27:33;;;;;;;43.35;13.25;;;;;;;6.50;100.00;96960.38;5042084;28;20064;-69
2022/01/03 06:30:01;;;;;;;43.83;13.55;;;;;;;6.92;100.00;97008.50;5043410;28;20056;-69
2022/01/03 06:32:27;;;;;;;44.83;14.93;;;;;;;6.89;100.00;97015.47;5042198;28;20067;-68
2022/01/03 06:34:54;;;;;;;53.40;19.38;;;;;;;6.39;100.00;96901.47;5041655;28;20080;-68
2022/01/03 06:37:21;;;;;;;56.05;18.67;;;;;;;7.02;100.00;97019.81;5043621;28;20053;-67
2022/01/03 06:39:48;;;;;;;67.47;25.83;;;;;;;6.59;100.00;96961.84;5043331;28;20067;-66
2022/01/03 06:42:14;;;;;;;69.68;26.08;;;;;;;6.93;100.00;97010.91;5043766;28;20061;-68
2022/01/03 06:44:43;;;;;;;50.05;21.13;;;;;;;6.83;100.00;97022.38;5041924;28;20057;-68
2022/01/03 06:47:10;;;;;;;47.58;20.33;;;;;;;6.69;100.00;97016.44;5042384;28;20172;-69
2022/01/03 06:49:37;;;;;;;40.17;16.30;;;;;;;3.47;100.00;96474.78;5014333;28;20060;-66
2022/01/03 06:52:04;;;;;;;35.55;15.60;;;;;;;6.69;100.00;96999.09;5011998;28;20080;-65
2022/01/03 06:54:33;;;;;;;56.33;24.17;;;;;;;6.49;100.00;96942.28;5015668;28;20052;-65
2022/01/03 06:57:00;;;;;;;54.35;25.70;;;;;;;6.01;100.00;96857.88;5019595;28;20107;-69
2022/01/03 06:59:28;;;;;;;57.22;22.38;;;;;;;6.66;100.00;96975.84;5009915;28;20057;-64
2022/01/03 07:01:55;;;;;;;50.38;20.45;;;;;;;6.93;100.00;97005.38;5016220;28;20063;-63
2022/01/03 07:04:22;;;;;;;50.33;18.23;;;;;;;6.05;100.00;96892.59;5040023;28;20046;-65
2022/01/03 07:06:49;;;;;;;35.78;14.55;;;;;;;6.71;100.00;97030.66;5018713;28;20053;-68
2022/01/03 07:09:16;;;;;;;37.58;13.98;;;;;;;6.75;100.00;97042.56;5014404;28;20050;-66
2022/01/03 07:11:43;;;;;;;44.28;18.02;;;;;;;5.62;100.00;96861.31;5014342;28;20611;-66
2022/01/03 07:19:44;;;;;;;30.15;11.50;;;;;;;6.42;100.00;97022.63;5014687;28;20060;-64
2022/01/03 07:22:11;;;;;;;21.35;9.18;;;;;;;5.92;100.00;96964.41;5022766;28;20563;-63
2022/01/03 07:24:39;;;;;;;24.05;11.13;;;;;;;6.15;100.00;96995.81;5013635;28;20045;-66
2022/01/03 07:27:09;;;;;;;27.65;11.90;;;;;;;6.59;100.00;97038.91;5014597;28;20046;-65
2022/01/03 07:29:36;;;;;;;21.35;9.63;;;;;;;6.40;100.00;96985.63;5017122;28;20268;-63
2022/01/03 07:32:04;;;;;;;29.42;12.93;;;;;;;6.17;100.00;96894.53;5018512;28;20041;-64
2022/01/03 07:34:31;;;;;;;24.90;12.02;;;;;;;7.08;100.00;97001.88;5010071;28;20038;-61
2022/01/03 07:36:58;;;;;;;25.48;12.18;;;;;;;7.51;100.00;97043.31;5014940;28;20058;-69
2022/01/03 07:39:25;;;;;;;21.27;11.32;;;;;;;7.61;100.00;97018.00;5010272;28;20908;-70
2022/01/03 07:41:52;;;;;;;33.63;13.88;;;;;;;7.63;100.00;97012.16;5022964;28;20091;-70
2022/01/03 07:44:19;;;;;;;54.05;21.75;;;;;;;7.28;99.72;96967.88;5022471;28;20069;-67
2022/01/03 07:46:46;;;;;;;42.88;17.27;;;;;;;7.81;100.00;97016.16;5017060;28;20111;-66
2022/01/03 07:49:13;;;;;;;31.45;14.85;;;;;;;8.16;98.03;97008.81;5009451;28;20078;-63
2022/01/03 07:51:39;;;;;;;33.95;14.27;;;;;;;8.56;96.31;97005.91;5016276;28;20058;-63
2022/01/03 07:54:06;;;;;;;26.88;14.30;;;;;;;8.39;94.31;96975.94;5015946;28;20527;-63
2022/01/03 07:56:33;;;;;;;26.90;12.90;;;;;;;8.73;95.01;97011.03;5016586;28;20140;-68
2022/01/03 07:59:00;;;;;;;22.48;10.98;;;;;;;8.65;92.54;96946.59;5015441;28;20583;-64
2022/01/03 08:01:27;;;;;;;20.63;10.32;;;;;;;7.66;97.53;96951.59;5015498;28;20056;-67
2022/01/03 08:03:54;;;;;;;41.78;19.48;;;;;;;8.44;97.34;97000.50;5012109;28;20482;-63
2022/01/03 08:06:41;;;;;;;29.35;12.98;;;;;;;5.63;94.79;96486.53;5015837;28;20053;-66
2022/01/03 08:09:07;;;;;;;29.98;13.90;;;;;;;9.00;93.80;96965.88;5020827;28;20209;-63
2022/01/03 08:11:34;;;;;;;23.38;10.93;;;;;;;9.19;90.56;96969.47;5006936;28;20423;-69
2022/01/03 08:14:01;;;;;;;24.95;11.85;;;;;;;9.36;90.17;96962.69;5012370;28;20057;-65
2022/01/03 08:16:28;;;;;;;26.02;11.88;;;;;;;9.27;89.41;96992.53;5017172;28;20061;-65
2022/01/03 08:18:55;;;;;;;39.90;17.60;;;;;;;9.08;90.96;96975.94;5017680;28;20092;-62
2022/01/03 08:21:22;;;;;;;40.30;18.70;;;;;;;9.01;91.67;96973.00;5013956;28;20041;-62
2022/01/03 08:23:51;;;;;;;49.35;20.73;;;;;;;8.00;91.67;96830.72;5034850;28;20084;-62
2022/01/03 08:26:17;;;;;;;57.38;24.63;;;;;;;8.81;93.22;96957.56;5015615;28;20336;-63
2022/01/03 08:28:44;;;;;;;74.30;31.27;;;;;;;8.14;93.80;96858.63;5029750;28;20063;-61
2022/01/03 08:31:11;;;;;;;65.25;28.60;;;;;;;8.01;93.65;96835.88;5012588;28;20057;-64
2022/01/03 08:33:38;;;;;;;70.32;28.55;;;;;;;7.47;93.01;96764.09;5011320;28;20139;-64
2022/01/03 08:36:05;;;;;;;54.17;24.92;;;;;;;8.94;91.87;96961.81;5019257;28;20436;-64
2022/01/03 08:38:32;;;;;;;61.63;27.17;;;;;;;8.57;92.32;96875.81;5015036;28;20275;-65
2022/01/03 08:40:59;;;;;;;63.33;29.77;;;;;;;8.95;92.86;96957.88;5012186;28;20093;-70
2022/01/03 08:43:26;;;;;;;59.38;28.23;;;;;;;9.02;93.44;96942.28;5010894;28;20056;-66
2022/01/03 08:45:53;;;;;;;61.45;26.48;;;;;;;8.87;92.43;96878.78;5026756;28;20428;-67
2022/01/03 08:48:20;;;;;;;53.67;25.23;;;;;;;8.88;91.57;96964.06;5007923;28;20536;-63
2022/01/03 08:50:47;;;;;;;51.22;23.13;;;;;;;9.13;91.52;96948.84;5014500;28;20056;-64
2022/01/03 08:53:14;;;;;;;50.83;23.05;;;;;;;8.03;90.33;96758.28;5016080;28;20081;-65
2022/01/03 08:55:41;;;;;;;40.08;17.58;;;;;;;8.91;89.51;96890.72;5014181;28;20057;-64
2022/01/03 08:58:07;;;;;;;32.80;16.65;;;;;;;9.30;88.43;96942.06;5012042;28;20135;-63
2022/01/03 09:00:34;;;;;;;40.33;18.52;;;;;;;9.77;88.48;96950.88;5010978;28;20062;-66
2022/01/03 09:03:01;;;;;;;40.72;18.63;;;;;;;9.76;87.17;96854.41;5016467;28;20051;-63
2022/01/03 09:05:28;;;;;;;37.78;17.73;;;;;;;9.50;84.61;96780.50;5012540;28;20045;-64
2022/01/03 09:07:55;;;;;;;43.08;19.85;;;;;;;10.41;83.44;96898.22;5007331;28;20769;-62
2022/01/03 09:10:22;;;;;;;48.53;23.77;;;;;;;10.94;83.75;96898.19;5015257;28;20508;-62
2022/01/03 09:12:49;;;;;;;45.10;21.65;;;;;;;10.72;82.28;96832.59;5011087;28;20065;-64
2022/01/03 09:15:15;;;;;;;37.65;20.55;;;;;;;11.12;79.01;96849.28;5015943;28;20072;-64
2022/01/03 09:17:42;;;;;;;37.70;19.58;;;;;;;11.50;78.56;96904.41;5013094;28;20058;-66
2022/01/03 09:20:09;;;;;;;38.75;21.08;;;;;;;11.79;78.84;96889.69;5011457;28;20549;-62
2022/01/03 09:22:41;;;;;;;40.28;19.73;;;;;;;11.38;77.60;96830.56;5015792;28;20507;-62
2022/01/03 09:30:36;;;;;;;33.85;16.45;;;;;;;9.88;77.70;96550.72;5023164;28;20056;-67
2022/01/03 09:33:03;;;;;;;40.70;19.23;;;;;;;11.99;78.04;96899.38;5014692;28;20050;-62
2022/01/03 09:35:30;;;;;;;32.80;15.65;;;;;;;11.96;78.54;96867.66;5013180;28;20053;-62
2022/01/03 09:37:57;;;;;;;34.03;15.48;;;;;;;11.66;78.28;96816.22;5016125;28;20132;-61
2022/01/03 09:40:24;;;;;;;32.70;16.05;;;;;;;11.36;78.77;96748.94;5011845;28;20050;-64
2022/01/03 09:42:57;;;;;;;25.23;13.43;;;;;;;11.22;77.92;96693.38;5013915;28;20060;-61
2022/01/03 09:45:28;;;;;;;24.55;13.68;;;;;;;12.20;76.53;96827.38;5012589;28;20548;-63
2022/01/03 09:47:56;;;;;;;29.50;15.80;;;;;;;12.48;75.01;96838.66;5023058;28;20655;-65
2022/01/03 09:50:23;;;;;;;41.13;20.13;;;;;;;12.53;75.46;96838.31;5011733;28;20045;-65
2022/01/03 09:52:50;;;;;;;31.20;16.42;;;;;;;12.36;74.95;96802.88;5014075;28;20077;-64
2022/01/03 09:55:20;;;;;;;23.75;13.32;;;;;;;12.66;74.52;96849.91;5012585;28;20392;-63
2022/01/03 09:57:47;;;;;;;28.70;14.48;;;;;;;12.84;74.91;96834.91;5008498;28;20064;-65
2022/01/03 10:00:22;;;;;;;32.33;17.52;;;;;;;13.05;73.88;96823.09;5011998;28;20519;-64
2022/01/03 10:02:51;;;;;;;30.00;18.88;;;;;;;13.34;73.30;96814.44;5014951;28;20057;-62
2022/01/03 10:05:20;;;;;;;30.70;16.40;;;;;;;13.28;72.42;96804.09;5011124;28;20159;-64
2022/01/03 10:07:47;;;;;;;24.52;13.63;;;;;;;13.46;71.84;96783.50;5007178;28;20396;-62
2022/01/03 10:10:14;;;;;;;19.48;10.73;;;;;;;13.43;68.75;96734.19;5011968;28;20057;-61
2022/01/03 10:12:41;;;;;;;14.38;9.27;;;;;;;13.67;68.23;96764.00;5011540;28;20058;-63
2022/01/03 10:15:09;;;;;;;13.02;8.05;;;;;;;14.35;66.83;96778.72;5015838;28;20053;-64
2022/01/03 10:17:38;;;;;;;26.13;14.55;;;;;;;14.35;65.65;96729.34;5019678;28;20045;-63
2022/01/03 10:20:10;;;;;;;18.98;11.18;;;;;;;14.47;61.61;96736.47;5021278;28;20049;-62
2022/01/03 10:22:38;;;;;;;15.25;8.55;;;;;;;14.76;62.19;96777.78;5021687;28;20473;-64
2022/01/03 10:25:18;;;;;;;16.17;9.98;;;;;;;14.94;63.10;96770.16;5016766;28;20148;-60
2022/01/03 10:27:59;;;;;;;9.80;6.05;;;;;;;14.19;60.95;96719.81;5019087;28;20064;-64
2022/01/03 10:30:45;;;;;;;10.10;6.60;;;;;;;14.45;62.23;96772.31;5009708;28;20136;-65
2022/01/03 10:33:17;;;;;;;10.25;6.53;;;;;;;14.83;63.07;96761.03;5003243;28;20554;-62
2022/01/03 10:35:52;;;;;;;10.80;6.30;;;;;;;14.98;59.35;96708.78;5004186;28;20474;-65
2022/01/03 10:38:43;;;;;;;11.70;6.43;;;;;;;15.09;59.89;96763.28;5003595;28;20058;-63
2022/01/03 10:41:21;;;;;;;10.73;6.07;;;;;;;14.82;60.42;96750.28;5003232;28;20081;-63
2022/01/03 10:43:57;;;;;;;10.40;6.82;;;;;;;14.54;63.73;96755.97;5002857;28;20521;-63
2022/01/03 10:46:27;;;;;;;14.88;7.65;;;;;;;14.18;66.04;96734.94;5002031;28;20068;-62
2022/01/03 10:49:06;;;;;;;12.38;7.90;;;;;;;14.46;66.34;96740.47;5003103;28;20517;-66
2022/01/03 10:51:33;;;;;;;11.27;7.03;;;;;;;14.07;64.82;96734.94;5003161;28;20623;-64
2022/01/03 10:53:59;;;;;;;14.63;7.90;;;;;;;13.53;67.65;96666.59;5003816;28;20045;-65
2022/01/03 10:56:34;;;;;;;15.50;8.73;;;;;;;14.44;66.91;96729.72;5013515;28;20085;-63
2022/01/03 10:59:14;;;;;;;20.70;11.75;;;;;;;14.91;64.59;96719.97;5021305;28;20049;-65
2022/01/03 11:01:43;;;;;;;26.95;17.77;;;;;;;15.28;62.13;96711.78;5022629;28;20046;-65
2022/01/03 11:04:14;;;;;;;24.40;13.98;;;;;;;15.39;60.84;96693.00;5006293;28;20050;-64
2022/01/03 11:11:58;;;;;;;8.63;5.28;;;;;;;13.43;58.17;96528.31;5016903;28;20054;-66
2022/01/03 11:14:41;;;;;;;11.25;6.88;;;;;;;14.73;58.74;96546.41;5010197;28;20053;-65
2022/01/03 11:17:29;;;;;;;17.17;10.03;;;;;;;15.99;57.40;96676.50;5014703;28;20057;-63
2022/01/03 11:19:59;;;;;;;15.77;9.88;;;;;;;15.78;57.28;96643.19;5011079;28;20056;-64
2022/01/03 11:22:45;;;;;;;14.77;8.68;;;;;;;16.25;55.89;96678.63;5015845;28;20060;-70
2022/01/03 11:25:12;;;;;;;12.13;6.32;;;;;;;16.41;53.99;96681.63;5015462;28;20128;-63
2022/01/03 11:27:40;;;;;;;11.35;6.25;;;;;;;16.24;53.66;96660.28;5009376;28;20081;-62
2022/01/03 11:30:11;;;;;;;13.65;7.65;;;;;;;15.44;62.35;96667.44;5010752;28;20053;-65
2022/01/03 11:32:43;;;;;;;19.13;8.90;;;;;;;14.91;61.31;96550.63;5010948;28;20674;-62
2022/01/03 11:35:11;;;;;;;15.43;8.37;;;;;;;14.83;62.31;96554.69;5005174;28;20520;-68
2022/01/03 11:37:44;;;;;;;11.73;8.00;;;;;;;13.69;63.65;96482.47;5024923;28;20058;-66
2022/01/03 11:40:13;;;;;;;14.27;8.00;;;;;;;14.39;67.02;96656.88;5019072;28;20217;-63
2022/01/03 11:42:42;;;;;;;15.35;8.45;;;;;;;14.11;66.06;96641.06;5018584;28;20139;-65
2022/01/03 11:45:09;;;;;;;11.48;6.55;;;;;;;14.20;68.02;96660.09;5018389;28;20090;-61